createdAt,value
2018-09-20T00:02:07.978Z,5.20
2018-09-20T00:04:36.005Z,4.95
2018-09-20T00:07:03.960Z,5.30
2018-09-20T00:09:32.364Z,5.17
2018-09-20T00:12:00.634Z,5.60
2018-09-20T00:14:27.993Z,5.58
2018-09-20T00:16:55.710Z,4.80
2018-09-20T00:19:24.035Z,5.90
2018-09-20T00:21:52.004Z,5.70
2018-09-20T00:24:19.778Z,4.87
2018-09-20T00:26:48.745Z,5.53
2018-09-20T00:29:16.331Z,5.65
2018-09-20T00:31:43.759Z,5.53
2018-09-20T00:34:11.438Z,4.25
2018-09-20T00:36:39.479Z,5.45
2018-09-20T00:39:10.508Z,4.90
2018-09-20T00:41:37.885Z,5.40
2018-09-20T00:44:05.358Z,6.95
2018-09-20T00:46:33.037Z,5.20
2018-09-20T00:49:00.918Z,6.55
2018-09-20T00:51:28.781Z,5.10
2018-09-20T00:53:56.849Z,4.92
2018-09-20T00:56:32.844Z,6.62
2018-09-20T01:01:28.735Z,5.40
2018-09-20T01:03:56.071Z,6.05
2018-09-20T01:06:24.287Z,6.10
2018-09-20T01:08:52.962Z,5.47
2018-09-20T01:11:21.771Z,6.75
2018-09-20T01:13:49.189Z,5.40
2018-09-20T01:16:16.702Z,5.62
2018-09-20T01:18:44.059Z,5.30
2018-09-20T01:21:11.878Z,4.97
2018-09-20T01:23:43.442Z,5.90
2018-09-20T01:26:12.993Z,5.80
2018-09-20T01:28:41.465Z,5.90
2018-09-20T01:31:11.626Z,6.08
2018-09-20T01:33:40.075Z,5.55
2018-09-20T01:36:07.472Z,6.17
2018-09-20T01:38:35.309Z,5.72
2018-09-20T01:41:04.407Z,5.83
2018-09-20T01:43:32.619Z,5.65
2018-09-20T01:46:01.491Z,5.70
2018-09-20T01:48:28.904Z,5.33
2018-09-20T01:50:56.391Z,5.00
2018-09-20T01:53:24.045Z,5.40
2018-09-20T01:55:52.599Z,5.03
2018-09-20T01:58:20.023Z,5.40
2018-09-20T02:00:48.034Z,5.45
2018-09-20T02:03:15.791Z,5.28
2018-09-20T02:05:43.914Z,6.42
2018-09-20T02:08:12.587Z,5.78
2018-09-20T02:10:39.949Z,5.50
2018-09-20T02:13:12.135Z,7.35
2018-09-20T02:15:40.063Z,5.30
2018-09-20T02:18:09.001Z,6.28
2018-09-20T02:20:41.046Z,5.95
2018-09-20T02:23:08.758Z,5.42
2018-09-20T02:25:36.394Z,5.47
2018-09-20T02:28:08.367Z,5.08
2018-09-20T02:30:36.440Z,5.80
2018-09-20T02:33:03.876Z,5.55
2018-09-20T02:35:32.684Z,5.92
2018-09-20T02:38:00.764Z,5.67
2018-09-20T02:40:29.280Z,5.33
2018-09-20T02:42:56.613Z,5.92
2018-09-20T02:45:27.342Z,5.40
2018-09-20T02:47:55.006Z,5.97
2018-09-20T02:50:22.762Z,5.17
2018-09-20T02:52:55.634Z,5.10
2018-09-20T02:55:23.001Z,4.97
2018-09-20T02:57:50.498Z,4.83
2018-09-20T03:00:20.261Z,5.78
2018-09-20T03:02:47.811Z,5.65
2018-09-20T03:05:16.696Z,5.03
2018-09-20T03:07:49.836Z,5.50
2018-09-20T03:10:17.897Z,5.20
2018-09-20T03:12:45.283Z,6.87
2018-09-20T03:15:12.722Z,5.20
2018-09-20T03:17:40.091Z,5.33
2018-09-20T03:22:45.549Z,6.15
2018-09-20T03:25:16.053Z,5.10
2018-09-20T03:27:44.401Z,6.25
2018-09-20T03:30:12.067Z,5.70
2018-09-20T03:32:43.501Z,5.08
2018-09-20T03:35:10.833Z,4.97
2018-09-20T03:37:38.498Z,5.00
2018-09-20T03:40:06.397Z,5.03
2018-09-20T03:42:34.380Z,5.45
2018-09-20T03:45:01.903Z,5.67
2018-09-20T03:47:29.584Z,5.33
2018-09-20T03:50:04.299Z,5.40
2018-09-20T03:52:36.613Z,6.12
2018-09-20T03:55:04.678Z,4.85
2018-09-20T03:57:32.243Z,5.95
2018-09-20T04:00:04.141Z,5.78
2018-09-20T04:02:33.340Z,6.70
2018-09-20T04:05:01.011Z,5.15
2018-09-20T04:09:55.894Z,4.75
2018-09-20T04:12:23.395Z,5.20
2018-09-20T04:14:55.237Z,5.62
2018-09-20T04:17:27.065Z,5.30
2018-09-20T04:19:54.500Z,5.80
2018-09-20T04:22:21.852Z,5.50
2018-09-20T04:24:54.700Z,6.58
2018-09-20T04:27:22.150Z,5.25
2018-09-20T04:29:50.140Z,5.83
2018-09-20T04:32:18.781Z,4.92
2018-09-20T04:34:47.598Z,5.05
2018-09-20T04:37:19.617Z,4.97
2018-09-20T04:39:48.097Z,6.10
2018-09-20T04:42:16.146Z,5.62
2018-09-20T04:44:43.537Z,5.03
2018-09-20T04:47:12.281Z,4.28
2018-09-20T04:49:39.662Z,5.60
2018-09-20T04:52:11.311Z,5.10
2018-09-20T04:54:38.995Z,5.78
2018-09-20T04:57:10.249Z,5.03
2018-09-20T04:59:38.302Z,4.60
2018-09-20T05:02:05.870Z,5.00
2018-09-20T05:04:34.877Z,5.53
2018-09-20T05:07:02.386Z,5.87
2018-09-20T05:09:34.928Z,5.37
2018-09-20T05:12:02.342Z,5.33
2018-09-20T05:14:30.311Z,5.25
2018-09-20T05:16:57.653Z,6.90
2018-09-20T05:19:25.837Z,5.92
2018-09-20T05:21:53.127Z,4.95
2018-09-20T05:24:20.574Z,5.72
2018-09-20T05:26:47.921Z,5.75
2018-09-20T05:29:15.238Z,4.85
2018-09-20T05:31:42.549Z,5.95
2018-09-20T05:34:09.890Z,4.87
2018-09-20T05:36:37.206Z,5.58
2018-09-20T05:39:06.094Z,5.33
2018-09-20T05:41:33.462Z,5.90
2018-09-20T05:44:00.797Z,4.80
2018-09-20T05:46:28.123Z,6.00
2018-09-20T05:48:55.415Z,5.53
2018-09-20T05:51:22.932Z,5.12
2018-09-20T05:53:50.221Z,6.10
2018-09-20T05:56:17.551Z,5.58
2018-09-20T05:58:44.901Z,6.40
2018-09-20T06:01:12.210Z,4.70
2018-09-20T06:03:39.529Z,5.42
2018-09-20T06:06:06.841Z,3.90
2018-09-20T06:08:34.227Z,4.55
2018-09-20T06:11:01.551Z,5.92
2018-09-20T06:13:28.921Z,4.97
2018-09-20T06:15:56.210Z,5.60
2018-09-20T06:18:23.514Z,4.65
2018-09-20T06:20:50.827Z,6.55
2018-09-20T06:23:18.151Z,5.58
2018-09-20T06:25:45.423Z,4.95
2018-09-20T06:28:12.718Z,5.65
2018-09-20T06:30:40.059Z,5.22
2018-09-20T06:33:07.364Z,4.72
2018-09-20T06:35:34.790Z,5.20
2018-09-20T06:38:02.129Z,6.50
2018-09-20T06:40:29.681Z,6.25
2018-09-20T06:42:56.987Z,5.43
2018-09-20T06:45:24.273Z,5.72
2018-09-20T06:47:51.599Z,5.77
2018-09-20T06:50:19.037Z,4.70
2018-09-20T06:52:46.225Z,4.40
2018-09-20T06:55:13.634Z,5.37
2018-09-20T06:57:40.914Z,5.30
2018-09-20T07:00:08.215Z,5.33
2018-09-20T07:02:35.979Z,6.30
2018-09-20T07:05:04.197Z,5.00
2018-09-20T07:07:31.804Z,4.53
2018-09-20T07:09:59.158Z,4.90
2018-09-20T07:12:26.786Z,5.33
2018-09-20T07:14:54.057Z,4.50
2018-09-20T07:17:21.374Z,5.00
2018-09-20T07:19:48.668Z,4.80
2018-09-20T07:22:15.970Z,4.83
2018-09-20T07:24:43.320Z,4.60
2018-09-20T07:27:10.676Z,4.80
2018-09-20T07:29:38.093Z,5.27
2018-09-20T07:32:05.397Z,4.60
2018-09-20T07:34:32.805Z,5.10
2018-09-20T07:37:00.202Z,5.43
2018-09-20T07:39:27.494Z,4.83
2018-09-20T07:41:54.830Z,4.43
2018-09-20T07:44:22.103Z,5.10
2018-09-20T07:46:49.413Z,4.47
2018-09-20T07:49:16.739Z,4.47
2018-09-20T07:51:44.014Z,4.90
2018-09-20T07:54:11.323Z,4.80
2018-09-20T07:56:38.664Z,5.03
2018-09-20T07:59:05.986Z,4.13
2018-09-20T08:01:33.385Z,4.83
2018-09-20T08:04:00.666Z,5.40
2018-09-20T08:06:28.031Z,5.00
2018-09-20T08:08:55.322Z,4.20
2018-09-20T08:11:22.584Z,4.57
2018-09-20T08:13:50.030Z,4.63
2018-09-20T08:16:17.338Z,4.40
2018-09-20T08:18:44.646Z,4.50
2018-09-20T08:21:11.938Z,4.80
2018-09-20T08:23:39.235Z,4.47
2018-09-20T08:26:06.798Z,4.57
2018-09-20T08:28:34.147Z,5.20
2018-09-20T08:31:01.422Z,4.23
2018-09-20T08:33:29.663Z,4.80
2018-09-20T08:35:56.959Z,3.93
2018-09-20T08:38:24.259Z,4.27
2018-09-20T08:40:51.578Z,4.87
2018-09-20T08:43:18.875Z,5.20
2018-09-20T08:45:46.282Z,5.27
2018-09-20T08:48:13.515Z,4.20
2018-09-20T08:50:40.867Z,4.60
2018-09-20T08:53:08.126Z,4.20
2018-09-20T08:55:35.413Z,3.90
2018-09-20T08:58:02.677Z,4.17
2018-09-20T09:00:29.989Z,4.30
2018-09-20T09:02:57.282Z,3.93
2018-09-20T09:05:24.586Z,4.20
2018-09-20T09:07:52.511Z,4.23
2018-09-20T09:10:19.811Z,3.47
2018-09-20T09:12:47.119Z,3.80
2018-09-20T09:15:14.507Z,3.37
2018-09-20T09:17:42.110Z,3.97
2018-09-20T09:20:09.415Z,3.70
2018-09-20T09:22:37.442Z,4.40
2018-09-20T09:25:04.958Z,4.50
2018-09-20T09:27:32.257Z,4.10
2018-09-20T09:29:59.642Z,4.03
2018-09-20T09:32:26.952Z,4.20
2018-09-20T09:34:54.255Z,3.20
2018-09-20T09:37:21.546Z,4.53
2018-09-20T09:39:48.899Z,4.60
2018-09-20T09:42:16.232Z,3.40
2018-09-20T09:44:43.610Z,3.57
2018-09-20T09:47:10.870Z,3.70
2018-09-20T09:49:38.197Z,4.27
2018-09-20T09:52:05.496Z,4.70
2018-09-20T09:54:32.869Z,3.97
2018-09-20T09:57:00.074Z,4.80
2018-09-20T09:59:27.350Z,3.67
2018-09-20T10:01:54.666Z,3.50
2018-09-20T10:04:21.966Z,3.93
2018-09-20T10:06:49.339Z,4.20
2018-09-20T10:09:16.614Z,3.83
2018-09-20T10:11:43.879Z,3.93
2018-09-20T10:14:11.283Z,4.17
2018-09-20T10:16:38.564Z,4.07
2018-09-20T10:19:05.879Z,4.63
2018-09-20T10:21:33.818Z,4.50
2018-09-20T10:24:01.249Z,3.97
2018-09-20T10:26:28.499Z,3.73
2018-09-20T10:28:55.833Z,3.13
2018-09-20T10:31:23.593Z,3.40
2018-09-20T10:33:50.861Z,3.23
2018-09-20T10:36:18.174Z,2.40
2018-09-20T10:38:45.735Z,3.50
2018-09-20T10:41:13.035Z,3.93
2018-09-20T10:43:40.294Z,3.47
2018-09-20T10:46:07.769Z,3.40
2018-09-20T10:48:35.087Z,3.70
2018-09-20T10:51:02.378Z,3.40
2018-09-20T10:53:29.674Z,3.97
2018-09-20T10:55:57.010Z,3.40
2018-09-20T10:58:24.278Z,3.43
2018-09-20T11:00:51.599Z,4.20
2018-09-20T11:03:18.964Z,3.47
2018-09-20T11:05:46.198Z,4.00
2018-09-20T11:08:13.595Z,3.20
2018-09-20T11:10:41.007Z,4.60
2018-09-20T11:13:08.337Z,3.70
2018-09-20T11:15:35.698Z,3.53
2018-09-20T11:18:03.015Z,3.57
2018-09-20T11:20:30.310Z,3.80
2018-09-20T11:22:57.606Z,3.00
2018-09-20T11:25:24.933Z,3.90
2018-09-20T11:27:52.628Z,3.67
2018-09-20T11:30:19.930Z,3.67
2018-09-20T11:32:47.243Z,3.20
2018-09-20T11:35:14.533Z,3.50
2018-09-20T11:37:41.858Z,2.70
2018-09-20T11:40:09.162Z,4.70
2018-09-20T11:42:36.470Z,2.93
2018-09-20T11:45:03.852Z,3.10
2018-09-20T11:47:31.154Z,3.70
2018-09-20T11:49:58.487Z,2.97
2018-09-20T11:52:25.858Z,3.67
2018-09-20T11:54:53.321Z,3.40
2018-09-20T11:57:20.707Z,3.20
2018-09-20T11:59:48.062Z,2.80
2018-09-20T12:02:15.391Z,3.73
2018-09-20T12:04:42.705Z,3.07
2018-09-20T12:07:10.058Z,3.37
2018-09-20T12:09:37.390Z,3.00
2018-09-20T12:12:04.689Z,3.80
2018-09-20T12:14:32.263Z,3.87
2018-09-20T12:16:59.492Z,3.20
2018-09-20T12:19:26.790Z,3.50
2018-09-20T12:21:54.090Z,3.57
2018-09-20T12:24:21.452Z,3.43
2018-09-20T12:26:48.987Z,4.07
2018-09-20T12:29:16.297Z,3.90
2018-09-20T12:31:43.631Z,3.57
2018-09-20T12:34:10.951Z,3.97
2018-09-20T12:36:38.208Z,4.63
2018-09-20T12:39:07.540Z,4.20
2018-09-20T12:41:35.490Z,4.80
2018-09-20T12:44:02.845Z,4.33
2018-09-20T12:46:30.099Z,5.07
2018-09-20T12:48:57.386Z,3.57
2018-09-20T12:51:24.675Z,3.70
2018-09-20T12:53:51.957Z,4.30
2018-09-20T12:56:19.259Z,3.40
2018-09-20T12:58:50.066Z,4.10
2018-09-20T13:01:17.750Z,3.80
2018-09-20T13:03:45.035Z,3.77
2018-09-20T13:06:12.343Z,3.90
2018-09-20T13:08:39.635Z,3.77
2018-09-20T13:11:06.938Z,2.67
2018-09-20T13:13:34.202Z,2.50
2018-09-20T13:16:01.750Z,3.70
2018-09-20T13:18:29.044Z,3.10
2018-09-20T13:20:56.450Z,3.37
2018-09-20T13:23:23.689Z,3.57
2018-09-20T13:25:51.053Z,3.53
2018-09-20T13:28:18.370Z,3.53
2018-09-20T13:30:45.691Z,3.13
2018-09-20T13:33:13.074Z,3.60
2018-09-20T13:35:40.360Z,3.67
2018-09-20T13:38:07.697Z,3.30
2018-09-20T13:40:35.089Z,3.87
2018-09-20T13:43:02.714Z,3.40
2018-09-20T13:45:29.974Z,2.90
2018-09-20T13:47:57.314Z,3.70
2018-09-20T13:50:24.692Z,3.90
2018-09-20T13:52:52.003Z,2.73
2018-09-20T13:55:19.298Z,3.30
2018-09-20T13:57:46.597Z,4.07
2018-09-20T14:00:13.891Z,3.10
2018-09-20T14:02:41.282Z,3.43
2018-09-20T14:05:08.657Z,3.60
2018-09-20T14:07:35.922Z,3.27
2018-09-20T14:10:03.311Z,3.13
2018-09-20T14:12:30.696Z,3.33
2018-09-20T14:14:58.218Z,3.13
2018-09-20T14:17:25.520Z,2.97
2018-09-20T14:19:52.819Z,3.73
2018-09-20T14:22:20.123Z,3.00
2018-09-20T14:24:47.433Z,3.50
2018-09-20T14:27:14.727Z,3.30
2018-09-20T14:29:42.045Z,2.70
2018-09-20T14:32:09.322Z,2.53
2018-09-20T14:34:36.635Z,3.30
2018-09-20T14:37:03.956Z,2.57
2018-09-20T14:39:31.330Z,3.60
2018-09-20T14:41:58.742Z,3.40
2018-09-20T14:44:26.093Z,3.63
2018-09-20T14:46:53.391Z,2.83
2018-09-20T14:49:20.718Z,3.30
2018-09-20T14:51:48.058Z,3.10
2018-09-20T14:54:15.358Z,2.80
2018-09-20T14:56:42.675Z,3.20
2018-09-20T14:59:10.018Z,2.93
2018-09-20T15:01:37.317Z,3.20
2018-09-20T15:04:04.582Z,3.40
2018-09-20T15:06:32.114Z,2.93
2018-09-20T15:08:59.498Z,2.73
2018-09-20T15:11:26.821Z,2.73
2018-09-20T15:13:54.089Z,3.37
2018-09-20T15:16:21.378Z,2.87
2018-09-20T15:18:48.670Z,2.93
2018-09-20T15:21:16.754Z,2.63
2018-09-20T15:23:44.091Z,2.57
2018-09-20T15:26:11.403Z,3.00
2018-09-20T15:28:38.799Z,2.77
2018-09-20T15:31:06.554Z,2.67
2018-09-20T15:33:33.909Z,3.03
2018-09-20T15:36:01.238Z,2.87
2018-09-20T15:38:28.614Z,3.00
2018-09-20T15:40:55.895Z,2.97
2018-09-20T15:43:23.196Z,2.93
2018-09-20T15:45:50.683Z,2.70
2018-09-20T15:48:18.006Z,2.70
2018-09-20T15:50:45.319Z,2.57
2018-09-20T15:53:12.628Z,3.17
2018-09-20T15:55:39.929Z,3.70
2018-09-20T15:58:07.280Z,3.10
2018-09-20T16:00:34.595Z,2.70
2018-09-20T16:03:01.916Z,2.97
2018-09-20T16:05:29.414Z,2.73
2018-09-20T16:07:56.752Z,3.00
2018-09-20T16:10:24.116Z,3.03
2018-09-20T16:12:51.406Z,3.13
2018-09-20T16:15:18.792Z,3.60
2018-09-20T16:17:46.267Z,3.10
2018-09-20T16:20:13.723Z,3.73
2018-09-20T16:22:41.042Z,3.50
2018-09-20T16:25:08.518Z,3.10
2018-09-20T16:27:36.262Z,3.73
2018-09-20T16:30:09.677Z,3.70
2018-09-20T16:32:50.059Z,3.07
2018-09-20T16:35:52.977Z,3.20
2018-09-20T16:38:24.377Z,3.13
2018-09-20T16:40:52.949Z,3.47
2018-09-20T16:43:20.372Z,3.70
2018-09-20T16:45:47.774Z,2.87
2018-09-20T16:48:18.987Z,3.60
2018-09-20T16:50:46.397Z,3.23
2018-09-20T16:53:13.869Z,3.50
2018-09-20T16:55:41.220Z,2.43
2018-09-20T16:58:09.930Z,3.57
2018-09-20T17:00:37.379Z,3.10
2018-09-20T17:03:04.782Z,4.13
2018-09-20T17:05:32.799Z,3.17
2018-09-20T17:08:00.169Z,3.43
2018-09-20T17:10:27.585Z,2.90
2018-09-20T17:12:55.551Z,3.00
2018-09-20T17:15:22.959Z,3.20
2018-09-20T17:17:51.071Z,3.50
2018-09-20T17:20:18.530Z,3.70
2018-09-20T17:22:45.810Z,3.47
2018-09-20T17:25:14.545Z,3.07
2018-09-20T17:27:41.990Z,2.87
2018-09-20T17:30:09.705Z,3.07
2018-09-20T17:32:37.021Z,2.77
2018-09-20T17:35:04.517Z,3.00
2018-09-20T17:37:34.006Z,3.57
2018-09-20T17:40:02.156Z,3.60
2018-09-20T17:42:30.171Z,3.87
2018-09-20T17:44:57.776Z,4.07
2018-09-20T17:47:25.197Z,5.10
2018-09-20T17:49:52.565Z,4.10
2018-09-20T17:52:20.218Z,4.50
2018-09-20T17:54:47.916Z,4.17
2018-09-20T17:57:15.559Z,4.20
2018-09-20T17:59:42.985Z,4.53
2018-09-20T18:02:10.328Z,5.10
2018-09-20T18:04:37.669Z,3.40
2018-09-20T18:07:05.082Z,4.10
2018-09-20T18:09:32.487Z,5.73
2018-09-20T18:12:04.074Z,5.10
2018-09-20T18:14:31.808Z,4.30
2018-09-20T18:16:59.162Z,5.10
2018-09-20T18:19:27.343Z,4.13
2018-09-20T18:21:54.671Z,4.70
2018-09-20T18:24:26.381Z,4.10
2018-09-20T18:26:54.452Z,4.87
2018-09-20T18:29:26.474Z,4.40
2018-09-20T18:31:54.838Z,4.70
2018-09-20T18:34:22.265Z,3.40
2018-09-20T18:36:49.641Z,4.03
2018-09-20T18:39:17.901Z,4.00
2018-09-20T18:41:45.926Z,3.40
2018-09-20T18:44:13.552Z,3.20
2018-09-20T18:46:41.494Z,3.30
2018-09-20T18:49:09.184Z,3.30
2018-09-20T18:51:39.001Z,3.70
2018-09-20T18:54:06.428Z,3.30
2018-09-20T18:56:33.832Z,3.47
2018-09-20T18:59:05.546Z,3.30
2018-09-20T19:01:33.906Z,3.53
2018-09-20T19:06:32.321Z,4.40
2018-09-20T19:08:59.905Z,3.97
2018-09-20T19:11:27.331Z,4.73
2018-09-20T19:13:55.323Z,4.30
2018-09-20T19:16:23.293Z,3.53
2018-09-20T19:18:51.638Z,3.40
2018-09-20T19:21:19.832Z,3.03
2018-09-20T19:23:47.889Z,4.10
2018-09-20T19:26:15.331Z,4.07
2018-09-20T19:28:47.640Z,3.40
2018-09-20T19:33:43.002Z,3.50
2018-09-20T19:36:11.168Z,3.57
2018-09-20T19:38:38.576Z,3.90
2018-09-20T19:41:07.178Z,3.83
2018-09-20T19:43:34.583Z,3.50
2018-09-20T19:46:01.914Z,3.50
2018-09-20T19:48:29.366Z,4.10
2018-09-20T19:51:01.830Z,4.10
2018-09-20T19:53:30.634Z,3.30
2018-09-20T19:55:58.600Z,3.50
2018-09-20T19:58:26.066Z,3.77
2018-09-20T20:00:53.499Z,3.70
2018-09-20T20:03:20.996Z,4.03
2018-09-20T20:05:49.403Z,4.50
2018-09-20T20:08:16.757Z,4.30
2018-09-20T20:10:44.146Z,3.10
2018-09-20T20:13:11.654Z,3.80
2018-09-20T20:15:39.481Z,3.73
2018-09-20T20:18:06.965Z,4.50
2018-09-20T20:20:38.471Z,4.90
2018-09-20T20:23:05.959Z,4.60
2018-09-20T20:25:33.418Z,3.63
2018-09-20T20:28:00.897Z,3.30
2018-09-20T20:30:33.278Z,3.77
2018-09-20T20:33:00.730Z,4.07
2018-09-20T20:35:28.147Z,3.40
2018-09-20T20:37:55.575Z,4.10
2018-09-20T20:40:22.991Z,3.80
2018-09-20T20:42:50.380Z,4.00
2018-09-20T20:45:17.817Z,3.80
2018-09-20T20:47:45.230Z,4.00
2018-09-20T20:50:17.165Z,4.00
2018-09-20T20:52:44.557Z,4.40
2018-09-20T20:55:12.598Z,3.07
2018-09-20T20:57:39.998Z,3.90
2018-09-20T21:00:08.252Z,3.47
2018-09-20T21:02:35.690Z,4.00
2018-09-20T21:05:04.073Z,3.50
2018-09-20T21:07:34.811Z,4.13
2018-09-20T21:10:02.846Z,3.37
2018-09-20T21:12:34.866Z,3.40
2018-09-20T21:15:05.130Z,3.80
2018-09-20T21:17:32.990Z,4.07
2018-09-20T21:20:00.393Z,4.63
2018-09-20T21:22:27.796Z,5.13
2018-09-20T21:24:55.617Z,3.53
2018-09-20T21:27:23.998Z,3.87
2018-09-20T21:29:52.596Z,4.60
2018-09-20T21:32:20.645Z,4.10
2018-09-20T21:34:48.062Z,3.73
2018-09-20T21:37:15.495Z,4.20
2018-09-20T21:39:43.998Z,4.00
2018-09-20T21:42:11.359Z,3.83
2018-09-20T21:44:38.781Z,3.63
2018-09-20T21:47:06.350Z,4.50
2018-09-20T21:49:34.355Z,3.63
2018-09-20T21:52:02.838Z,3.97
2018-09-20T21:54:31.134Z,3.87
2018-09-20T21:57:00.255Z,3.30
2018-09-20T21:59:27.629Z,4.20
2018-09-20T22:02:03.142Z,3.87
2018-09-20T22:04:31.855Z,3.50
2018-09-20T22:07:00.838Z,4.10
2018-09-20T22:09:31.156Z,4.63
2018-09-20T22:11:58.775Z,3.60
2018-09-20T22:14:26.243Z,3.53
2018-09-20T22:16:53.927Z,3.80
2018-09-20T22:19:30.393Z,4.07
2018-09-20T22:24:47.087Z,3.10
2018-09-20T22:27:15.110Z,3.80
2018-09-20T22:29:42.736Z,3.70
2018-09-20T22:32:10.151Z,4.23
2018-09-20T22:34:38.946Z,4.57
2018-09-20T22:37:07.011Z,3.60
2018-09-20T22:39:34.979Z,3.33
2018-09-20T22:42:02.275Z,3.53
2018-09-20T22:44:29.713Z,3.40
2018-09-20T22:46:57.177Z,3.30
2018-09-20T22:49:24.786Z,3.30
2018-09-20T22:51:57.285Z,3.37
2018-09-20T22:54:33.840Z,3.87
2018-09-20T22:57:01.371Z,3.90
2018-09-20T22:59:29.799Z,4.70
2018-09-20T23:01:57.162Z,3.23
2018-09-20T23:06:51.839Z,4.87
2018-09-20T23:09:19.376Z,3.37
2018-09-20T23:11:47.061Z,3.63
2018-09-20T23:14:16.026Z,3.80
2018-09-20T23:16:43.452Z,3.40
2018-09-20T23:19:12.578Z,3.67
2018-09-20T23:21:40.360Z,3.40
2018-09-20T23:24:08.088Z,3.77
2018-09-20T23:26:35.525Z,3.37
2018-09-20T23:29:03.218Z,3.20
2018-09-20T23:31:30.658Z,3.27
2018-09-20T23:33:58.039Z,3.57
2018-09-20T23:36:26.068Z,4.13
2018-09-20T23:38:57.818Z,3.40
2018-09-20T23:41:26.291Z,3.63
2018-09-20T23:43:54.575Z,3.60
2018-09-20T23:48:50.305Z,3.93
2018-09-20T23:51:17.700Z,3.70
2018-09-20T23:53:45.169Z,3.60
2018-09-20T23:56:12.726Z,3.63
2018-09-20T23:58:40.278Z,3.33
